createdAt,value
2018-10-18T00:04:15.587Z,5.2
2018-10-18T00:09:17.789Z,5.1
2018-10-18T00:14:20.143Z,7.2
2018-10-18T00:19:22.467Z,6.8
2018-10-18T00:24:24.707Z,5.1
2018-10-18T00:29:27.011Z,8.7
2018-10-18T00:34:29.241Z,5.6
2018-10-18T00:39:31.765Z,6.1
2018-10-18T00:44:33.863Z,6
2018-10-18T00:49:36.141Z,6.2
2018-10-18T00:54:38.550Z,5.9
2018-10-18T00:59:40.785Z,11.4
2018-10-18T01:04:43.006Z,4.4
2018-10-18T01:09:45.397Z,7.9
2018-10-18T01:14:48.713Z,6.1
2018-10-18T01:19:49.906Z,7.5
2018-10-18T01:24:52.282Z,5.5
2018-10-18T01:29:54.641Z,6.3
2018-10-18T01:34:56.829Z,5.9
2018-10-18T01:39:59.118Z,8.1
2018-10-18T01:45:01.474Z,7.7
2018-10-18T01:50:03.848Z,6
2018-10-18T01:55:06.044Z,8.4
2018-10-18T02:00:08.289Z,9.7
2018-10-18T02:05:10.779Z,9.1
2018-10-18T02:10:12.855Z,5.7
2018-10-18T02:15:15.243Z,11.6
2018-10-18T02:20:17.420Z,8.6
2018-10-18T02:25:19.913Z,8.2
2018-10-18T02:30:22.340Z,8.3
2018-10-18T02:35:24.300Z,9.9
2018-10-18T02:40:26.585Z,7.7
2018-10-18T02:45:28.903Z,11.2
2018-10-18T02:50:31.282Z,5.1
2018-10-18T02:55:33.719Z,8.3
2018-10-18T03:00:36.074Z,7.5
2018-10-18T03:05:38.171Z,8.4
2018-10-18T03:10:40.468Z,8.5
2018-10-18T03:20:45.073Z,10.2
2018-10-18T03:25:47.329Z,8.5
2018-10-18T03:30:49.579Z,6.7
2018-10-18T03:35:52.019Z,7.4
2018-10-18T03:40:54.263Z,7.4
2018-10-18T03:45:56.463Z,9.6
2018-10-18T03:50:58.849Z,8.9
2018-10-18T03:56:01.029Z,12.6
2018-10-18T04:01:03.409Z,7.1
2018-10-18T04:06:05.870Z,9.4
2018-10-18T04:11:07.948Z,7.6
2018-10-18T04:16:10.235Z,8.5
2018-10-18T04:21:12.552Z,9.6
2018-10-18T04:26:14.943Z,11.1
2018-10-18T04:31:18.293Z,8.3
2018-10-18T04:36:21.250Z,10
2018-10-18T04:41:21.821Z,14
2018-10-18T04:46:24.074Z,11.5
2018-10-18T04:51:26.279Z,9.8
2018-10-18T04:56:28.580Z,12
2018-10-18T05:01:30.901Z,8.2
2018-10-18T05:06:33.172Z,9.7
2018-10-18T05:11:35.487Z,11.8
2018-10-18T05:16:37.804Z,8.5
2018-10-18T05:21:40.092Z,7.9
2018-10-18T05:26:42.405Z,11.5
2018-10-18T05:31:44.705Z,10.8
2018-10-18T05:36:47.035Z,6.7
2018-10-18T05:41:50.308Z,9
2018-10-18T05:51:53.788Z,11.9
2018-10-18T05:56:56.172Z,8.8
2018-10-18T06:01:58.480Z,11.8
2018-10-18T06:07:00.752Z,14.3
2018-10-18T06:12:03.006Z,12.2
2018-10-18T06:17:05.352Z,13
2018-10-18T06:22:07.664Z,14.5
2018-10-18T06:27:09.927Z,14.3
2018-10-18T06:32:12.171Z,8.5
2018-10-18T06:37:14.541Z,7.9
2018-10-18T06:42:16.781Z,12.7
2018-10-18T06:47:19.092Z,9.4
2018-10-18T06:52:21.466Z,10.5
2018-10-18T06:57:23.640Z,9.3
2018-10-18T07:02:25.915Z,8.6
2018-10-18T07:07:28.334Z,8.1
2018-10-18T07:12:30.468Z,8.1
2018-10-18T07:17:32.880Z,9.1
2018-10-18T07:22:35.213Z,9.7
2018-10-18T07:27:37.366Z,13.7
2018-10-18T07:32:39.676Z,17.200001
2018-10-18T07:37:41.987Z,12.4
2018-10-18T07:42:44.413Z,14.5
2018-10-18T07:47:47.623Z,11.7
2018-10-18T07:52:50.110Z,11.3
2018-10-18T07:57:51.196Z,9.7
2018-10-18T08:02:53.544Z,12.2
2018-10-18T08:07:55.781Z,12
2018-10-18T08:12:58.205Z,8.9
2018-10-18T08:18:00.308Z,8.8
2018-10-18T08:23:02.671Z,7.6
2018-10-18T08:28:04.985Z,7.2
2018-10-18T08:33:07.213Z,14.1
2018-10-18T08:38:09.599Z,4.7
2018-10-18T08:43:12.048Z,6.2
2018-10-18T08:48:14.219Z,7.5
2018-10-18T08:53:20.661Z,9.2
2018-10-18T08:58:18.836Z,8
2018-10-18T09:03:20.979Z,6
2018-10-18T09:08:23.365Z,3.6
2018-10-18T09:13:25.564Z,7.3
2018-10-18T09:18:27.928Z,4.5
2018-10-18T09:23:30.279Z,6.9
2018-10-18T09:28:32.447Z,7.2
2018-10-18T09:33:34.798Z,6.5
2018-10-18T09:38:37.036Z,6.7
2018-10-18T09:43:39.333Z,4.6
2018-10-18T09:48:41.686Z,4.6
2018-10-18T09:53:45.011Z,4.7
2018-10-18T09:58:46.252Z,5.4
2018-10-18T10:03:48.523Z,5.3
2018-10-18T10:08:52.082Z,4.6
2018-10-18T10:13:54.633Z,4.9
2018-10-18T10:18:55.412Z,5
2018-10-18T10:23:57.759Z,1.8
2018-10-18T10:28:59.982Z,2.7
2018-10-18T10:34:02.309Z,3.4
2018-10-18T10:39:06.098Z,4.6
2018-10-18T10:44:07.026Z,3
2018-10-18T10:49:09.252Z,2.2
2018-10-18T10:54:11.666Z,3.4
2018-10-18T10:59:13.860Z,2.6
2018-10-18T11:04:16.066Z,2.9
2018-10-18T11:09:18.442Z,2.7
2018-10-18T11:14:20.674Z,3.1
2018-10-18T11:19:22.920Z,2.3
2018-10-18T11:24:25.292Z,1.1
2018-10-18T11:29:27.508Z,2.4
2018-10-18T11:34:29.881Z,1.8
2018-10-18T11:39:32.198Z,1.2
2018-10-18T11:44:34.376Z,2.4
2018-10-18T11:49:36.671Z,1.8
2018-10-18T11:54:38.996Z,0.8
2018-10-18T11:59:41.421Z,1.4
2018-10-18T12:04:43.624Z,1.1
2018-10-18T12:09:45.863Z,0.8
2018-10-18T12:14:48.304Z,1.5
2018-10-18T12:19:50.466Z,0.8
2018-10-18T12:24:52.820Z,1.2
2018-10-18T12:29:55.265Z,2.4
2018-10-18T12:34:58.595Z,2.1
2018-10-18T12:40:02.069Z,0.3
2018-10-18T12:45:02.074Z,3.4
2018-10-18T12:50:04.306Z,0.8
2018-10-18T12:55:06.594Z,0.8
2018-10-18T13:00:08.957Z,1.4
2018-10-18T13:05:11.210Z,0.8
2018-10-18T13:10:13.419Z,0.9
2018-10-18T13:15:15.727Z,1.5
2018-10-18T13:20:18.151Z,0.8
2018-10-18T13:25:20.371Z,0.9
2018-10-18T13:30:22.583Z,1.1
2018-10-18T13:35:24.859Z,1
2018-10-18T13:40:27.192Z,1.1
2018-10-18T13:45:29.586Z,2.7
2018-10-18T13:50:31.803Z,1.8
2018-10-18T13:55:34.061Z,4
2018-10-18T14:00:37.413Z,0.7
2018-10-18T14:05:40.527Z,1.9
2018-10-18T14:10:40.893Z,1.7
2018-10-18T14:15:44.399Z,2.5
2018-10-18T14:20:45.536Z,0.8
2018-10-18T14:25:47.837Z,1.3
2018-10-18T14:30:50.221Z,1.2
2018-10-18T14:35:52.432Z,1.1
2018-10-18T14:40:54.724Z,1.2
2018-10-18T14:45:57.137Z,1.7
2018-10-18T14:50:59.492Z,1.5
2018-10-18T14:56:01.671Z,1.6
2018-10-18T15:01:03.868Z,1
2018-10-18T15:06:06.339Z,2.6
2018-10-18T15:11:08.517Z,1.2
2018-10-18T15:16:10.708Z,1.4
2018-10-18T15:21:14.558Z,1.1
2018-10-18T15:26:15.386Z,1.2
2018-10-18T15:31:17.686Z,1.1
2018-10-18T15:36:19.938Z,2.3
2018-10-18T15:41:23.343Z,0.7
2018-10-18T15:46:25.915Z,1.7
2018-10-18T15:51:26.756Z,1.1
2018-10-18T15:56:29.267Z,1.6
2018-10-18T16:01:31.382Z,1.4
2018-10-18T16:06:33.725Z,1
2018-10-18T16:11:36.037Z,0.9
2018-10-18T16:16:38.279Z,0.8
2018-10-18T16:21:40.599Z,1.2
2018-10-18T16:26:42.916Z,1.1
2018-10-18T16:31:45.192Z,0.7
2018-10-18T16:36:47.482Z,2.7
2018-10-18T16:41:49.914Z,1.2
2018-10-18T16:46:52.166Z,1.7
2018-10-18T16:51:54.373Z,0.9
2018-10-18T16:56:56.706Z,0.9
2018-10-18T17:01:59.097Z,0.8
2018-10-18T17:07:01.327Z,1.6
2018-10-18T17:12:03.602Z,0.6
2018-10-18T17:17:06.903Z,0.7
2018-10-18T17:22:09.892Z,1.2
2018-10-18T17:27:10.603Z,1.5
2018-10-18T17:32:12.825Z,2.4
2018-10-18T17:37:15.031Z,1.1
2018-10-18T17:42:17.360Z,1.4
2018-10-18T17:47:19.635Z,0.8
2018-10-18T17:52:22.024Z,0.9
2018-10-18T17:57:24.204Z,2.4
2018-10-18T18:02:26.419Z,0.9
2018-10-18T18:07:28.732Z,1.4
2018-10-18T18:12:31.081Z,1
2018-10-18T18:17:33.279Z,2.5
2018-10-18T18:22:35.701Z,2.1
2018-10-18T18:27:38.032Z,1.1
2018-10-18T18:37:42.609Z,1.2
2018-10-18T18:42:44.890Z,1.2
2018-10-18T18:47:47.098Z,0.6
2018-10-18T18:52:49.486Z,0.9
2018-10-18T18:57:51.802Z,1.5
2018-10-18T19:02:54.014Z,2.1
2018-10-18T19:07:56.256Z,2.3
2018-10-18T19:12:58.534Z,1
2018-10-18T19:18:00.810Z,0.9
2018-10-18T19:23:03.210Z,0.7
2018-10-18T19:28:05.434Z,1.6
2018-10-18T19:33:07.712Z,1
2018-10-18T19:38:10.100Z,0.6
2018-10-18T19:43:12.541Z,1.9
2018-10-18T19:48:14.597Z,0.5
2018-10-18T19:53:16.874Z,0.6
2018-10-18T19:58:19.280Z,1.5
2018-10-18T20:03:21.530Z,0.5
2018-10-18T20:08:23.942Z,1
2018-10-18T20:13:26.226Z,0.9
2018-10-18T20:18:28.416Z,1.9
2018-10-18T20:23:30.661Z,4.3
2018-10-18T20:28:32.991Z,0.7
2018-10-18T20:33:35.432Z,0.8
2018-10-18T20:38:37.592Z,1.5
2018-10-18T20:43:39.891Z,0.7
2018-10-18T20:48:42.246Z,1.2
2018-10-18T20:53:44.436Z,0.7
2018-10-18T20:58:46.830Z,1.9
2018-10-18T21:03:49.067Z,0.9
2018-10-18T21:08:51.342Z,1.2
2018-10-18T21:13:53.638Z,1.7
2018-10-18T21:18:55.952Z,0.6
2018-10-18T21:23:58.442Z,1.6
2018-10-18T21:34:02.773Z,1.3
2018-10-18T21:39:05.048Z,1.7
2018-10-18T21:44:07.572Z,1.7
2018-10-18T21:49:09.668Z,1.6
2018-10-18T21:54:12.138Z,1.5
2018-10-18T21:59:14.369Z,1.7
2018-10-18T22:04:16.507Z,1.7
2018-10-18T22:09:18.889Z,1
2018-10-18T22:14:21.207Z,1.6
2018-10-18T22:19:23.441Z,0.9
2018-10-18T22:29:27.971Z,1.3
2018-10-18T22:34:30.349Z,2
2018-10-18T22:39:32.686Z,1.6
2018-10-18T22:44:34.926Z,0.9
2018-10-18T22:49:37.198Z,1.4
2018-10-18T22:54:39.589Z,1.7
2018-10-18T22:59:41.894Z,2.3
2018-10-18T23:04:44.137Z,2
2018-10-18T23:09:46.526Z,1.1
2018-10-18T23:14:48.643Z,1.5
2018-10-18T23:19:51.022Z,0.7
2018-10-18T23:24:53.332Z,1.4
2018-10-18T23:29:55.648Z,1.9
2018-10-18T23:34:57.895Z,1.2
2018-10-18T23:40:00.256Z,0.9
2018-10-18T23:45:02.564Z,2.2
2018-10-18T23:50:04.710Z,1.2
2018-10-18T23:55:07.185Z,1.4
